sensor_id;sensor_type;location;lat;lon;timestamp;P1;durP1;ratioP1;P2;durP2;ratioP2
5981;SDS011;3018;48.730;9.336;2022-07-09T00:02:15;2.70;;;2.15;;
5981;SDS011;3018;48.730;9.336;2022-07-09T00:04:42;2.38;;;1.83;;
5981;SDS011;3018;48.730;9.336;2022-07-09T00:07:08;2.45;;;2.10;;
5981;SDS011;3018;48.730;9.336;2022-07-09T00:09:34;3.92;;;2.15;;
5981;SDS011;3018;48.730;9.336;2022-07-09T00:12:01;4.95;;;2.47;;
5981;SDS011;3018;48.730;9.336;2022-07-09T00:14:27;2.30;;;2.20;;
5981;SDS011;3018;48.730;9.336;2022-07-09T00:16:56;2.55;;;2.35;;
5981;SDS011;3018;48.730;9.336;2022-07-09T00:19:22;3.78;;;2.50;;
5981;SDS011;3018;48.730;9.336;2022-07-09T00:21:48;2.47;;;2.13;;
5981;SDS011;3018;48.730;9.336;2022-07-09T00:24:14;2.28;;;2.00;;
5981;SDS011;3018;48.730;9.336;2022-07-09T00:26:41;4.38;;;2.33;;
5981;SDS011;3018;48.730;9.336;2022-07-09T00:29:07;3.70;;;2.30;;
5981;SDS011;3018;48.730;9.336;2022-07-09T00:31:33;2.30;;;1.90;;
5981;SDS011;3018;48.730;9.336;2022-07-09T00:34:01;4.72;;;2.10;;
5981;SDS011;3018;48.730;9.336;2022-07-09T00:36:27;3.30;;;2.22;;
5981;SDS011;3018;48.730;9.336;2022-07-09T00:38:53;2.35;;;2.22;;
5981;SDS011;3018;48.730;9.336;2022-07-09T00:41:19;4.63;;;2.15;;
5981;SDS011;3018;48.730;9.336;2022-07-09T00:43:46;3.28;;;2.08;;
5981;SDS011;3018;48.730;9.336;2022-07-09T00:46:13;2.05;;;1.92;;
5981;SDS011;3018;48.730;9.336;2022-07-09T00:48:39;3.20;;;1.88;;
5981;SDS011;3018;48.730;9.336;2022-07-09T00:51:07;2.35;;;2.15;;
5981;SDS011;3018;48.730;9.336;2022-07-09T00:53:33;3.75;;;2.30;;
5981;SDS011;3018;48.730;9.336;2022-07-09T00:56:00;2.47;;;2.25;;
5981;SDS011;3018;48.730;9.336;2022-07-09T00:58:27;2.55;;;2.20;;
5981;SDS011;3018;48.730;9.336;2022-07-09T01:00:54;3.78;;;2.17;;
5981;SDS011;3018;48.730;9.336;2022-07-09T01:03:21;4.35;;;2.17;;
5981;SDS011;3018;48.730;9.336;2022-07-09T01:05:48;3.28;;;2.20;;
5981;SDS011;3018;48.730;9.336;2022-07-09T01:08:15;3.38;;;2.13;;
5981;SDS011;3018;48.730;9.336;2022-07-09T01:10:42;2.75;;;2.13;;
5981;SDS011;3018;48.730;9.336;2022-07-09T01:13:08;2.28;;;2.08;;
5981;SDS011;3018;48.730;9.336;2022-07-09T01:15:34;4.57;;;2.25;;
5981;SDS011;3018;48.730;9.336;2022-07-09T01:18:00;2.15;;;1.98;;
5981;SDS011;3018;48.730;9.336;2022-07-09T01:20:28;2.38;;;2.17;;
5981;SDS011;3018;48.730;9.336;2022-07-09T01:22:55;2.17;;;2.00;;
5981;SDS011;3018;48.730;9.336;2022-07-09T01:25:24;6.07;;;2.40;;
5981;SDS011;3018;48.730;9.336;2022-07-09T01:27:53;2.53;;;2.33;;
5981;SDS011;3018;48.730;9.336;2022-07-09T01:30:23;3.55;;;2.22;;
5981;SDS011;3018;48.730;9.336;2022-07-09T01:32:49;4.10;;;2.25;;
5981;SDS011;3018;48.730;9.336;2022-07-09T01:35:16;2.17;;;1.92;;
5981;SDS011;3018;48.730;9.336;2022-07-09T01:37:43;4.90;;;2.15;;
5981;SDS011;3018;48.730;9.336;2022-07-09T01:40:10;4.65;;;2.20;;
5981;SDS011;3018;48.730;9.336;2022-07-09T01:42:36;2.28;;;2.15;;
5981;SDS011;3018;48.730;9.336;2022-07-09T01:45:03;2.70;;;2.33;;
5981;SDS011;3018;48.730;9.336;2022-07-09T01:50:32;6.05;;;2.35;;
5981;SDS011;3018;48.730;9.336;2022-07-09T01:53:00;2.53;;;2.28;;
5981;SDS011;3018;48.730;9.336;2022-07-09T01:55:26;3.38;;;1.92;;
5981;SDS011;3018;48.730;9.336;2022-07-09T01:57:52;3.65;;;2.15;;
5981;SDS011;3018;48.730;9.336;2022-07-09T02:00:18;2.30;;;2.08;;
5981;SDS011;3018;48.730;9.336;2022-07-09T02:02:45;3.83;;;2.05;;
5981;SDS011;3018;48.730;9.336;2022-07-09T02:05:11;2.38;;;2.15;;
5981;SDS011;3018;48.730;9.336;2022-07-09T02:07:37;2.95;;;2.50;;
5981;SDS011;3018;48.730;9.336;2022-07-09T02:10:05;4.85;;;2.50;;
5981;SDS011;3018;48.730;9.336;2022-07-09T02:12:31;2.45;;;1.88;;
5981;SDS011;3018;48.730;9.336;2022-07-09T02:14:58;4.28;;;2.30;;
5981;SDS011;3018;48.730;9.336;2022-07-09T02:17:24;4.63;;;2.38;;
5981;SDS011;3018;48.730;9.336;2022-07-09T02:19:50;3.47;;;2.15;;
5981;SDS011;3018;48.730;9.336;2022-07-09T02:22:16;2.75;;;2.47;;
5981;SDS011;3018;48.730;9.336;2022-07-09T02:24:43;3.17;;;2.30;;
5981;SDS011;3018;48.730;9.336;2022-07-09T02:27:10;3.25;;;2.20;;
5981;SDS011;3018;48.730;9.336;2022-07-09T02:29:37;4.00;;;1.90;;
5981;SDS011;3018;48.730;9.336;2022-07-09T02:32:04;2.90;;;2.53;;
5981;SDS011;3018;48.730;9.336;2022-07-09T02:34:31;4.75;;;2.53;;
5981;SDS011;3018;48.730;9.336;2022-07-09T02:36:57;3.15;;;2.00;;
5981;SDS011;3018;48.730;9.336;2022-07-09T02:39:24;2.80;;;2.55;;
5981;SDS011;3018;48.730;9.336;2022-07-09T02:41:50;2.35;;;2.25;;
5981;SDS011;3018;48.730;9.336;2022-07-09T02:44:18;2.50;;;2.30;;
5981;SDS011;3018;48.730;9.336;2022-07-09T02:46:45;2.20;;;2.10;;
5981;SDS011;3018;48.730;9.336;2022-07-09T02:49:11;3.65;;;2.30;;
5981;SDS011;3018;48.730;9.336;2022-07-09T02:51:37;2.58;;;2.30;;
5981;SDS011;3018;48.730;9.336;2022-07-09T02:54:03;2.63;;;2.42;;
5981;SDS011;3018;48.730;9.336;2022-07-09T02:56:30;3.72;;;2.45;;
5981;SDS011;3018;48.730;9.336;2022-07-09T02:58:56;5.05;;;2.40;;
5981;SDS011;3018;48.730;9.336;2022-07-09T03:01:24;3.17;;;2.45;;
5981;SDS011;3018;48.730;9.336;2022-07-09T03:03:50;2.97;;;2.33;;
5981;SDS011;3018;48.730;9.336;2022-07-09T03:06:17;5.32;;;2.22;;
5981;SDS011;3018;48.730;9.336;2022-07-09T03:08:43;2.72;;;2.15;;
5981;SDS011;3018;48.730;9.336;2022-07-09T03:11:09;2.60;;;2.40;;
5981;SDS011;3018;48.730;9.336;2022-07-09T03:13:36;4.35;;;2.28;;
5981;SDS011;3018;48.730;9.336;2022-07-09T03:16:02;2.53;;;2.17;;
5981;SDS011;3018;48.730;9.336;2022-07-09T03:18:31;2.55;;;2.30;;
5981;SDS011;3018;48.730;9.336;2022-07-09T03:20:57;2.67;;;2.10;;
5981;SDS011;3018;48.730;9.336;2022-07-09T03:23:23;2.85;;;2.08;;
5981;SDS011;3018;48.730;9.336;2022-07-09T03:25:49;2.97;;;2.20;;
5981;SDS011;3018;48.730;9.336;2022-07-09T03:28:16;3.22;;;2.33;;
5981;SDS011;3018;48.730;9.336;2022-07-09T03:30:43;4.15;;;2.42;;
5981;SDS011;3018;48.730;9.336;2022-07-09T03:33:09;3.58;;;2.40;;
5981;SDS011;3018;48.730;9.336;2022-07-09T03:35:36;2.95;;;2.53;;
5981;SDS011;3018;48.730;9.336;2022-07-09T03:38:04;3.05;;;2.38;;
5981;SDS011;3018;48.730;9.336;2022-07-09T03:40:30;5.00;;;2.80;;
5981;SDS011;3018;48.730;9.336;2022-07-09T03:42:57;4.32;;;2.15;;
5981;SDS011;3018;48.730;9.336;2022-07-09T03:45:23;3.88;;;2.75;;
5981;SDS011;3018;48.730;9.336;2022-07-09T03:47:49;4.15;;;2.30;;
5981;SDS011;3018;48.730;9.336;2022-07-09T03:50:16;3.00;;;2.45;;
5981;SDS011;3018;48.730;9.336;2022-07-09T03:52:44;5.63;;;2.10;;
5981;SDS011;3018;48.730;9.336;2022-07-09T03:55:10;3.17;;;2.38;;
5981;SDS011;3018;48.730;9.336;2022-07-09T03:57:36;4.10;;;2.53;;
5981;SDS011;3018;48.730;9.336;2022-07-09T04:00:03;2.88;;;2.65;;
5981;SDS011;3018;48.730;9.336;2022-07-09T04:02:29;4.38;;;2.42;;
5981;SDS011;3018;48.730;9.336;2022-07-09T04:04:56;2.88;;;2.47;;
5981;SDS011;3018;48.730;9.336;2022-07-09T04:07:22;6.25;;;2.60;;
5981;SDS011;3018;48.730;9.336;2022-07-09T04:09:52;5.55;;;2.63;;
5981;SDS011;3018;48.730;9.336;2022-07-09T04:12:19;2.72;;;2.55;;
5981;SDS011;3018;48.730;9.336;2022-07-09T04:14:45;5.50;;;2.58;;
5981;SDS011;3018;48.730;9.336;2022-07-09T04:17:11;2.80;;;2.58;;
5981;SDS011;3018;48.730;9.336;2022-07-09T04:19:37;3.33;;;2.60;;
5981;SDS011;3018;48.730;9.336;2022-07-09T04:22:04;2.88;;;2.65;;
5981;SDS011;3018;48.730;9.336;2022-07-09T04:24:30;5.40;;;3.33;;
5981;SDS011;3018;48.730;9.336;2022-07-09T04:26:58;4.57;;;3.10;;
5981;SDS011;3018;48.730;9.336;2022-07-09T04:29:24;3.03;;;2.72;;
5981;SDS011;3018;48.730;9.336;2022-07-09T04:31:50;3.72;;;2.75;;
5981;SDS011;3018;48.730;9.336;2022-07-09T04:34:17;2.70;;;2.50;;
5981;SDS011;3018;48.730;9.336;2022-07-09T04:36:43;2.38;;;2.28;;
5981;SDS011;3018;48.730;9.336;2022-07-09T04:39:09;7.18;;;3.20;;
5981;SDS011;3018;48.730;9.336;2022-07-09T04:41:35;2.80;;;2.60;;
5981;SDS011;3018;48.730;9.336;2022-07-09T04:44:03;2.83;;;2.65;;
5981;SDS011;3018;48.730;9.336;2022-07-09T04:46:30;3.17;;;2.60;;
5981;SDS011;3018;48.730;9.336;2022-07-09T04:48:57;5.88;;;2.80;;
5981;SDS011;3018;48.730;9.336;2022-07-09T04:51:23;3.50;;;2.95;;
5981;SDS011;3018;48.730;9.336;2022-07-09T04:53:50;3.92;;;2.70;;
5981;SDS011;3018;48.730;9.336;2022-07-09T04:56:16;2.90;;;2.80;;
5981;SDS011;3018;48.730;9.336;2022-07-09T04:58:42;3.45;;;2.45;;
5981;SDS011;3018;48.730;9.336;2022-07-09T05:01:17;4.22;;;2.60;;
5981;SDS011;3018;48.730;9.336;2022-07-09T05:03:44;4.28;;;2.90;;
5981;SDS011;3018;48.730;9.336;2022-07-09T05:06:11;3.72;;;2.88;;
5981;SDS011;3018;48.730;9.336;2022-07-09T05:08:38;3.03;;;2.67;;
5981;SDS011;3018;48.730;9.336;2022-07-09T05:11:04;3.22;;;2.85;;
5981;SDS011;3018;48.730;9.336;2022-07-09T05:13:31;6.70;;;2.83;;
5981;SDS011;3018;48.730;9.336;2022-07-09T05:15:57;4.47;;;3.20;;
5981;SDS011;3018;48.730;9.336;2022-07-09T05:18:25;3.83;;;2.95;;
5981;SDS011;3018;48.730;9.336;2022-07-09T05:20:51;3.95;;;2.97;;
5981;SDS011;3018;48.730;9.336;2022-07-09T05:23:17;3.63;;;2.38;;
5981;SDS011;3018;48.730;9.336;2022-07-09T05:25:44;4.00;;;3.03;;
5981;SDS011;3018;48.730;9.336;2022-07-09T05:28:10;4.68;;;3.08;;
5981;SDS011;3018;48.730;9.336;2022-07-09T05:30:36;4.72;;;3.28;;
5981;SDS011;3018;48.730;9.336;2022-07-09T05:33:03;5.65;;;3.17;;
5981;SDS011;3018;48.730;9.336;2022-07-09T05:35:30;5.20;;;3.10;;
5981;SDS011;3018;48.730;9.336;2022-07-09T05:37:56;5.75;;;3.00;;
5981;SDS011;3018;48.730;9.336;2022-07-09T05:40:23;3.10;;;2.90;;
5981;SDS011;3018;48.730;9.336;2022-07-09T05:42:49;2.78;;;2.63;;
5981;SDS011;3018;48.730;9.336;2022-07-09T05:45:15;4.15;;;2.55;;
5981;SDS011;3018;48.730;9.336;2022-07-09T05:47:42;6.70;;;2.67;;
5981;SDS011;3018;48.730;9.336;2022-07-09T05:50:09;4.72;;;2.80;;
5981;SDS011;3018;48.730;9.336;2022-07-09T05:52:36;4.10;;;2.58;;
5981;SDS011;3018;48.730;9.336;2022-07-09T05:55:03;2.97;;;2.78;;
5981;SDS011;3018;48.730;9.336;2022-07-09T05:57:29;5.10;;;2.78;;
5981;SDS011;3018;48.730;9.336;2022-07-09T05:59:57;2.83;;;2.63;;
5981;SDS011;3018;48.730;9.336;2022-07-09T06:02:23;3.05;;;2.72;;
5981;SDS011;3018;48.730;9.336;2022-07-09T06:04:49;3.80;;;2.70;;
5981;SDS011;3018;48.730;9.336;2022-07-09T06:07:16;5.35;;;3.55;;
5981;SDS011;3018;48.730;9.336;2022-07-09T06:09:43;3.03;;;2.80;;
5981;SDS011;3018;48.730;9.336;2022-07-09T06:12:10;4.85;;;2.78;;
5981;SDS011;3018;48.730;9.336;2022-07-09T06:14:36;3.70;;;3.17;;
5981;SDS011;3018;48.730;9.336;2022-07-09T06:17:02;3.50;;;2.88;;
5981;SDS011;3018;48.730;9.336;2022-07-09T06:19:31;3.33;;;2.25;;
5981;SDS011;3018;48.730;9.336;2022-07-09T06:21:58;3.30;;;2.50;;
5981;SDS011;3018;48.730;9.336;2022-07-09T06:24:24;6.03;;;3.00;;
5981;SDS011;3018;48.730;9.336;2022-07-09T06:26:52;3.78;;;2.35;;
5981;SDS011;3018;48.730;9.336;2022-07-09T06:29:18;3.65;;;2.83;;
5981;SDS011;3018;48.730;9.336;2022-07-09T06:31:44;5.32;;;2.60;;
5981;SDS011;3018;48.730;9.336;2022-07-09T06:34:11;6.50;;;2.60;;
5981;SDS011;3018;48.730;9.336;2022-07-09T06:36:37;5.30;;;2.85;;
5981;SDS011;3018;48.730;9.336;2022-07-09T06:39:03;3.33;;;2.70;;
5981;SDS011;3018;48.730;9.336;2022-07-09T06:41:47;6.57;;;2.47;;
5981;SDS011;3018;48.730;9.336;2022-07-09T06:44:14;6.20;;;3.15;;
5981;SDS011;3018;48.730;9.336;2022-07-09T06:46:41;4.32;;;2.70;;
5981;SDS011;3018;48.730;9.336;2022-07-09T06:49:07;6.80;;;2.20;;
5981;SDS011;3018;48.730;9.336;2022-07-09T06:51:33;3.63;;;2.65;;
5981;SDS011;3018;48.730;9.336;2022-07-09T06:53:59;6.25;;;2.42;;
5981;SDS011;3018;48.730;9.336;2022-07-09T06:56:26;7.07;;;3.75;;
5981;SDS011;3018;48.730;9.336;2022-07-09T06:58:52;6.90;;;2.90;;
5981;SDS011;3018;48.730;9.336;2022-07-09T07:01:20;8.07;;;3.97;;
5981;SDS011;3018;48.730;9.336;2022-07-09T07:03:46;2.83;;;2.53;;
5981;SDS011;3018;48.730;9.336;2022-07-09T07:06:12;3.00;;;2.80;;
5981;SDS011;3018;48.730;9.336;2022-07-09T07:08:38;5.30;;;2.75;;
5981;SDS011;3018;48.730;9.336;2022-07-09T07:11:04;3.42;;;2.40;;
5981;SDS011;3018;48.730;9.336;2022-07-09T07:13:31;6.43;;;2.70;;
5981;SDS011;3018;48.730;9.336;2022-07-09T07:15:57;5.75;;;2.28;;
5981;SDS011;3018;48.730;9.336;2022-07-09T07:18:25;5.05;;;4.28;;
5981;SDS011;3018;48.730;9.336;2022-07-09T07:20:51;8.18;;;3.45;;
5981;SDS011;3018;48.730;9.336;2022-07-09T07:23:17;2.53;;;2.33;;
5981;SDS011;3018;48.730;9.336;2022-07-09T07:25:43;6.57;;;2.38;;
5981;SDS011;3018;48.730;9.336;2022-07-09T07:28:10;6.65;;;2.10;;
5981;SDS011;3018;48.730;9.336;2022-07-09T07:30:36;6.78;;;2.30;;
5981;SDS011;3018;48.730;9.336;2022-07-09T07:33:03;4.68;;;2.28;;
5981;SDS011;3018;48.730;9.336;2022-07-09T07:35:30;5.47;;;2.70;;
5981;SDS011;3018;48.730;9.336;2022-07-09T07:37:57;3.50;;;2.10;;
5981;SDS011;3018;48.730;9.336;2022-07-09T07:40:23;2.50;;;2.22;;
5981;SDS011;3018;48.730;9.336;2022-07-09T07:42:50;2.55;;;2.35;;
5981;SDS011;3018;48.730;9.336;2022-07-09T07:45:16;4.28;;;2.70;;
5981;SDS011;3018;48.730;9.336;2022-07-09T07:47:42;4.13;;;2.20;;
5981;SDS011;3018;48.730;9.336;2022-07-09T07:50:09;5.70;;;2.13;;
5981;SDS011;3018;48.730;9.336;2022-07-09T07:52:36;10.30;;;5.32;;
5981;SDS011;3018;48.730;9.336;2022-07-09T07:55:03;6.43;;;2.45;;
5981;SDS011;3018;48.730;9.336;2022-07-09T07:57:29;3.13;;;2.55;;
5981;SDS011;3018;48.730;9.336;2022-07-09T07:59:55;4.53;;;2.22;;
5981;SDS011;3018;48.730;9.336;2022-07-09T08:02:22;3.28;;;2.03;;
5981;SDS011;3018;48.730;9.336;2022-07-09T08:04:48;5.65;;;2.20;;
5981;SDS011;3018;48.730;9.336;2022-07-09T08:07:14;2.72;;;1.90;;
5981;SDS011;3018;48.730;9.336;2022-07-09T08:09:42;4.75;;;2.28;;
5981;SDS011;3018;48.730;9.336;2022-07-09T08:12:08;5.60;;;1.63;;
5981;SDS011;3018;48.730;9.336;2022-07-09T08:14:35;5.55;;;2.30;;
5981;SDS011;3018;48.730;9.336;2022-07-09T08:17:01;5.05;;;2.20;;
5981;SDS011;3018;48.730;9.336;2022-07-09T08:19:27;2.97;;;1.67;;
5981;SDS011;3018;48.730;9.336;2022-07-09T08:21:53;5.43;;;1.65;;
5981;SDS011;3018;48.730;9.336;2022-07-09T08:24:21;5.90;;;1.75;;
5981;SDS011;3018;48.730;9.336;2022-07-09T08:26:48;5.45;;;1.90;;
5981;SDS011;3018;48.730;9.336;2022-07-09T08:29:15;3.60;;;1.90;;
5981;SDS011;3018;48.730;9.336;2022-07-09T08:31:41;4.97;;;3.17;;
5981;SDS011;3018;48.730;9.336;2022-07-09T08:34:07;7.82;;;2.40;;
5981;SDS011;3018;48.730;9.336;2022-07-09T08:36:33;4.65;;;2.13;;
5981;SDS011;3018;48.730;9.336;2022-07-09T08:39:00;5.93;;;2.03;;
5981;SDS011;3018;48.730;9.336;2022-07-09T08:41:26;3.92;;;1.63;;
5981;SDS011;3018;48.730;9.336;2022-07-09T08:43:54;6.47;;;1.67;;
5981;SDS011;3018;48.730;9.336;2022-07-09T08:46:20;2.67;;;1.65;;
5981;SDS011;3018;48.730;9.336;2022-07-09T08:48:46;2.13;;;1.50;;
5981;SDS011;3018;48.730;9.336;2022-07-09T08:51:12;5.13;;;1.58;;
5981;SDS011;3018;48.730;9.336;2022-07-09T08:53:40;2.42;;;1.70;;
5981;SDS011;3018;48.730;9.336;2022-07-09T08:56:07;7.88;;;2.22;;
5981;SDS011;3018;48.730;9.336;2022-07-09T08:58:33;5.18;;;1.60;;
5981;SDS011;3018;48.730;9.336;2022-07-09T09:01:01;6.97;;;1.60;;
5981;SDS011;3018;48.730;9.336;2022-07-09T09:03:29;5.75;;;1.80;;
5981;SDS011;3018;48.730;9.336;2022-07-09T09:06:01;3.15;;;1.50;;
5981;SDS011;3018;48.730;9.336;2022-07-09T09:08:28;3.03;;;1.30;;
5981;SDS011;3018;48.730;9.336;2022-07-09T09:10:59;2.63;;;1.27;;
5981;SDS011;3018;48.730;9.336;2022-07-09T09:13:25;1.38;;;0.77;;
5981;SDS011;3018;48.730;9.336;2022-07-09T09:16:02;4.68;;;1.15;;
5981;SDS011;3018;48.730;9.336;2022-07-09T09:18:29;1.38;;;0.90;;
5981;SDS011;3018;48.730;9.336;2022-07-09T09:21:00;1.95;;;0.90;;
5981;SDS011;3018;48.730;9.336;2022-07-09T09:23:27;1.75;;;1.13;;
5981;SDS011;3018;48.730;9.336;2022-07-09T09:25:53;3.72;;;0.70;;
5981;SDS011;3018;48.730;9.336;2022-07-09T09:28:19;2.60;;;0.98;;
5981;SDS011;3018;48.730;9.336;2022-07-09T09:30:45;0.90;;;0.90;;
5981;SDS011;3018;48.730;9.336;2022-07-09T09:33:15;4.85;;;1.00;;
5981;SDS011;3018;48.730;9.336;2022-07-09T09:35:44;0.73;;;0.70;;
5981;SDS011;3018;48.730;9.336;2022-07-09T09:38:10;1.58;;;0.98;;
5981;SDS011;3018;48.730;9.336;2022-07-09T09:40:36;7.57;;;1.25;;
5981;SDS011;3018;48.730;9.336;2022-07-09T09:43:04;3.72;;;0.98;;
5981;SDS011;3018;48.730;9.336;2022-07-09T09:45:31;1.90;;;0.82;;
5981;SDS011;3018;48.730;9.336;2022-07-09T09:47:58;2.00;;;0.90;;
5981;SDS011;3018;48.730;9.336;2022-07-09T09:50:26;1.30;;;0.60;;
5981;SDS011;3018;48.730;9.336;2022-07-09T09:52:53;2.35;;;0.80;;
5981;SDS011;3018;48.730;9.336;2022-07-09T09:55:20;2.30;;;1.05;;
5981;SDS011;3018;48.730;9.336;2022-07-09T09:57:47;1.88;;;0.80;;
5981;SDS011;3018;48.730;9.336;2022-07-09T10:00:14;1.85;;;0.77;;
5981;SDS011;3018;48.730;9.336;2022-07-09T10:02:42;2.50;;;0.90;;
5981;SDS011;3018;48.730;9.336;2022-07-09T10:05:08;4.13;;;0.90;;
5981;SDS011;3018;48.730;9.336;2022-07-09T10:07:36;1.58;;;0.80;;
5981;SDS011;3018;48.730;9.336;2022-07-09T10:10:04;1.70;;;0.70;;
5981;SDS011;3018;48.730;9.336;2022-07-09T10:12:32;3.67;;;0.73;;
5981;SDS011;3018;48.730;9.336;2022-07-09T10:14:59;3.28;;;0.68;;
5981;SDS011;3018;48.730;9.336;2022-07-09T10:17:26;1.77;;;0.60;;
5981;SDS011;3018;48.730;9.336;2022-07-09T10:19:52;0.88;;;0.88;;
5981;SDS011;3018;48.730;9.336;2022-07-09T10:22:19;4.82;;;1.10;;
5981;SDS011;3018;48.730;9.336;2022-07-09T10:24:49;1.45;;;0.98;;
5981;SDS011;3018;48.730;9.336;2022-07-09T10:27:16;1.50;;;0.90;;
5981;SDS011;3018;48.730;9.336;2022-07-09T10:29:55;1.45;;;0.75;;
5981;SDS011;3018;48.730;9.336;2022-07-09T10:32:24;8.23;;;1.40;;
5981;SDS011;3018;48.730;9.336;2022-07-09T10:34:53;4.95;;;0.80;;
5981;SDS011;3018;48.730;9.336;2022-07-09T10:37:29;10.15;;;1.67;;
5981;SDS011;3018;48.730;9.336;2022-07-09T10:40:03;2.67;;;0.82;;
5981;SDS011;3018;48.730;9.336;2022-07-09T10:42:30;0.63;;;0.63;;
5981;SDS011;3018;48.730;9.336;2022-07-09T10:44:56;3.35;;;0.88;;
5981;SDS011;3018;48.730;9.336;2022-07-09T10:47:22;3.65;;;0.77;;
5981;SDS011;3018;48.730;9.336;2022-07-09T10:49:48;2.60;;;0.85;;
5981;SDS011;3018;48.730;9.336;2022-07-09T10:52:15;2.15;;;0.80;;
5981;SDS011;3018;48.730;9.336;2022-07-09T10:54:45;1.70;;;0.80;;
5981;SDS011;3018;48.730;9.336;2022-07-09T10:57:13;1.00;;;0.80;;
5981;SDS011;3018;48.730;9.336;2022-07-09T10:59:44;3.28;;;0.80;;
5981;SDS011;3018;48.730;9.336;2022-07-09T11:02:16;2.25;;;0.85;;
5981;SDS011;3018;48.730;9.336;2022-07-09T11:04:43;1.67;;;0.80;;
5981;SDS011;3018;48.730;9.336;2022-07-09T11:07:18;2.42;;;0.73;;
5981;SDS011;3018;48.730;9.336;2022-07-09T11:09:44;1.65;;;1.52;;
5981;SDS011;3018;48.730;9.336;2022-07-09T11:12:12;6.68;;;1.15;;
5981;SDS011;3018;48.730;9.336;2022-07-09T11:14:43;3.83;;;0.88;;
5981;SDS011;3018;48.730;9.336;2022-07-09T11:17:13;2.75;;;1.00;;
5981;SDS011;3018;48.730;9.336;2022-07-09T11:19:39;2.60;;;1.23;;
5981;SDS011;3018;48.730;9.336;2022-07-09T11:22:06;3.40;;;1.20;;
5981;SDS011;3018;48.730;9.336;2022-07-09T11:24:32;2.78;;;1.17;;
5981;SDS011;3018;48.730;9.336;2022-07-09T11:27:00;3.10;;;1.38;;
5981;SDS011;3018;48.730;9.336;2022-07-09T11:29:28;4.18;;;1.30;;
5981;SDS011;3018;48.730;9.336;2022-07-09T11:31:56;4.32;;;1.42;;
5981;SDS011;3018;48.730;9.336;2022-07-09T11:34:22;2.63;;;1.38;;
5981;SDS011;3018;48.730;9.336;2022-07-09T11:36:50;4.22;;;1.08;;
5981;SDS011;3018;48.730;9.336;2022-07-09T11:39:23;2.53;;;1.20;;
5981;SDS011;3018;48.730;9.336;2022-07-09T11:41:49;2.25;;;0.88;;
5981;SDS011;3018;48.730;9.336;2022-07-09T11:44:19;4.00;;;1.13;;
5981;SDS011;3018;48.730;9.336;2022-07-09T11:46:45;2.60;;;1.58;;
5981;SDS011;3018;48.730;9.336;2022-07-09T11:49:16;2.33;;;0.90;;
5981;SDS011;3018;48.730;9.336;2022-07-09T11:51:42;1.02;;;0.75;;
5981;SDS011;3018;48.730;9.336;2022-07-09T11:54:09;2.22;;;1.20;;
5981;SDS011;3018;48.730;9.336;2022-07-09T11:56:39;2.80;;;1.00;;
5981;SDS011;3018;48.730;9.336;2022-07-09T11:59:05;2.92;;;0.90;;
5981;SDS011;3018;48.730;9.336;2022-07-09T12:01:31;3.20;;;1.15;;
5981;SDS011;3018;48.730;9.336;2022-07-09T12:03:58;5.03;;;0.90;;
5981;SDS011;3018;48.730;9.336;2022-07-09T12:06:25;1.60;;;0.80;;
5981;SDS011;3018;48.730;9.336;2022-07-09T12:08:58;1.30;;;0.93;;
5981;SDS011;3018;48.730;9.336;2022-07-09T12:11:25;5.05;;;1.05;;
5981;SDS011;3018;48.730;9.336;2022-07-09T12:13:52;2.30;;;0.90;;
5981;SDS011;3018;48.730;9.336;2022-07-09T12:16:18;3.50;;;1.00;;
5981;SDS011;3018;48.730;9.336;2022-07-09T12:18:44;1.67;;;0.80;;
5981;SDS011;3018;48.730;9.336;2022-07-09T12:21:11;4.68;;;1.10;;
5981;SDS011;3018;48.730;9.336;2022-07-09T12:23:38;1.27;;;0.90;;
5981;SDS011;3018;48.730;9.336;2022-07-09T12:26:04;5.68;;;1.10;;
5981;SDS011;3018;48.730;9.336;2022-07-09T12:28:31;3.95;;;0.98;;
5981;SDS011;3018;48.730;9.336;2022-07-09T12:30:57;3.20;;;1.00;;
5981;SDS011;3018;48.730;9.336;2022-07-09T12:33:23;3.35;;;0.80;;
5981;SDS011;3018;48.730;9.336;2022-07-09T12:35:49;3.55;;;0.82;;
5981;SDS011;3018;48.730;9.336;2022-07-09T12:38:16;28.83;;;2.50;;
5981;SDS011;3018;48.730;9.336;2022-07-09T12:40:43;21.08;;;1.83;;
5981;SDS011;3018;48.730;9.336;2022-07-09T12:43:10;5.10;;;0.90;;
5981;SDS011;3018;48.730;9.336;2022-07-09T12:45:36;0.68;;;0.60;;
5981;SDS011;3018;48.730;9.336;2022-07-09T12:48:02;1.33;;;0.82;;
5981;SDS011;3018;48.730;9.336;2022-07-09T12:50:29;1.42;;;0.75;;
5981;SDS011;3018;48.730;9.336;2022-07-09T12:52:55;1.42;;;0.98;;
5981;SDS011;3018;48.730;9.336;2022-07-09T12:55:21;1.60;;;0.90;;
5981;SDS011;3018;48.730;9.336;2022-07-09T12:57:49;3.38;;;0.93;;
5981;SDS011;3018;48.730;9.336;2022-07-09T13:00:15;2.53;;;1.10;;
5981;SDS011;3018;48.730;9.336;2022-07-09T13:02:41;1.20;;;1.10;;
5981;SDS011;3018;48.730;9.336;2022-07-09T13:05:08;5.63;;;1.83;;
5981;SDS011;3018;48.730;9.336;2022-07-09T13:07:35;2.47;;;0.63;;
5981;SDS011;3018;48.730;9.336;2022-07-09T13:10:01;1.77;;;0.82;;
5981;SDS011;3018;48.730;9.336;2022-07-09T13:12:27;2.15;;;1.00;;
5981;SDS011;3018;48.730;9.336;2022-07-09T13:14:55;2.67;;;1.20;;
5981;SDS011;3018;48.730;9.336;2022-07-09T13:17:21;1.48;;;1.10;;
5981;SDS011;3018;48.730;9.336;2022-07-09T13:19:47;1.58;;;0.85;;
5981;SDS011;3018;48.730;9.336;2022-07-09T13:22:14;1.08;;;0.70;;
5981;SDS011;3018;48.730;9.336;2022-07-09T13:24:41;2.17;;;0.77;;
5981;SDS011;3018;48.730;9.336;2022-07-09T13:27:07;0.60;;;0.60;;
5981;SDS011;3018;48.730;9.336;2022-07-09T13:29:35;0.90;;;0.90;;
5981;SDS011;3018;48.730;9.336;2022-07-09T13:32:03;1.88;;;0.60;;
5981;SDS011;3018;48.730;9.336;2022-07-09T13:34:30;4.97;;;0.95;;
5981;SDS011;3018;48.730;9.336;2022-07-09T13:36:56;0.65;;;0.65;;
5981;SDS011;3018;48.730;9.336;2022-07-09T13:39:22;2.78;;;0.80;;
5981;SDS011;3018;48.730;9.336;2022-07-09T13:41:48;1.10;;;0.70;;
5981;SDS011;3018;48.730;9.336;2022-07-09T13:44:15;1.20;;;0.60;;
5981;SDS011;3018;48.730;9.336;2022-07-09T13:46:41;0.57;;;0.57;;
5981;SDS011;3018;48.730;9.336;2022-07-09T13:49:08;1.55;;;0.68;;
5981;SDS011;3018;48.730;9.336;2022-07-09T13:51:35;1.20;;;0.70;;
5981;SDS011;3018;48.730;9.336;2022-07-09T13:54:01;1.38;;;0.80;;
5981;SDS011;3018;48.730;9.336;2022-07-09T13:56:27;1.83;;;0.90;;
5981;SDS011;3018;48.730;9.336;2022-07-09T13:58:54;2.00;;;0.75;;
5981;SDS011;3018;48.730;9.336;2022-07-09T14:01:20;1.15;;;0.95;;
5981;SDS011;3018;48.730;9.336;2022-07-09T14:03:46;1.23;;;0.73;;
5981;SDS011;3018;48.730;9.336;2022-07-09T14:06:14;1.20;;;0.70;;
5981;SDS011;3018;48.730;9.336;2022-07-09T14:08:40;4.13;;;0.80;;
5981;SDS011;3018;48.730;9.336;2022-07-09T14:11:06;3.38;;;0.85;;
5981;SDS011;3018;48.730;9.336;2022-07-09T14:13:32;0.70;;;0.70;;
5981;SDS011;3018;48.730;9.336;2022-07-09T14:16:00;1.20;;;0.73;;
5981;SDS011;3018;48.730;9.336;2022-07-09T14:18:26;2.33;;;0.63;;
5981;SDS011;3018;48.730;9.336;2022-07-09T14:20:53;2.60;;;1.08;;
5981;SDS011;3018;48.730;9.336;2022-07-09T14:23:21;1.35;;;0.75;;
5981;SDS011;3018;48.730;9.336;2022-07-09T14:25:47;0.98;;;0.70;;
5981;SDS011;3018;48.730;9.336;2022-07-09T14:28:13;1.15;;;0.60;;
5981;SDS011;3018;48.730;9.336;2022-07-09T14:30:39;3.70;;;1.55;;
5981;SDS011;3018;48.730;9.336;2022-07-09T14:33:06;0.95;;;0.90;;
5981;SDS011;3018;48.730;9.336;2022-07-09T14:35:32;1.08;;;0.70;;
5981;SDS011;3018;48.730;9.336;2022-07-09T14:37:58;2.03;;;0.90;;
5981;SDS011;3018;48.730;9.336;2022-07-09T14:40:26;2.47;;;0.73;;
5981;SDS011;3018;48.730;9.336;2022-07-09T14:42:52;0.60;;;0.60;;
5981;SDS011;3018;48.730;9.336;2022-07-09T14:45:18;0.73;;;0.73;;
5981;SDS011;3018;48.730;9.336;2022-07-09T14:47:45;2.50;;;0.70;;
5981;SDS011;3018;48.730;9.336;2022-07-09T14:50:11;2.33;;;0.77;;
5981;SDS011;3018;48.730;9.336;2022-07-09T14:52:37;0.90;;;0.90;;
5981;SDS011;3018;48.730;9.336;2022-07-09T14:55:04;0.60;;;0.60;;
5981;SDS011;3018;48.730;9.336;2022-07-09T14:57:32;18.08;;;1.92;;
5981;SDS011;3018;48.730;9.336;2022-07-09T14:59:58;3.97;;;1.02;;
5981;SDS011;3018;48.730;9.336;2022-07-09T15:02:24;3.05;;;1.13;;
5981;SDS011;3018;48.730;9.336;2022-07-09T15:04:50;8.15;;;1.30;;
5981;SDS011;3018;48.730;9.336;2022-07-09T15:07:16;1.83;;;0.80;;
5981;SDS011;3018;48.730;9.336;2022-07-09T15:09:43;1.45;;;1.00;;
5981;SDS011;3018;48.730;9.336;2022-07-09T15:12:09;1.38;;;0.70;;
5981;SDS011;3018;48.730;9.336;2022-07-09T15:14:37;2.47;;;0.70;;
5981;SDS011;3018;48.730;9.336;2022-07-09T15:17:03;0.95;;;0.73;;